createdAt,value
2024-04-08T00:00:58.540Z,3.30
2024-04-08T00:03:25.077Z,4.30
2024-04-08T00:05:53.407Z,3.50
2024-04-08T00:08:20.403Z,3.90
2024-04-08T00:10:47.006Z,3.50
2024-04-08T00:13:14.479Z,3.70
2024-04-08T00:15:41.084Z,3.90
2024-04-08T00:18:07.661Z,3.90
2024-04-08T00:20:35.252Z,4.20
2024-04-08T00:23:02.765Z,4.30
2024-04-08T00:25:29.295Z,4.30
2024-04-08T00:27:56.006Z,4.00
2024-04-08T00:30:22.601Z,4.30
2024-04-08T00:32:49.232Z,4.00
2024-04-08T00:35:16.810Z,3.90
2024-04-08T00:37:43.485Z,4.40
2024-04-08T00:40:10.386Z,4.60
2024-04-08T00:42:37.459Z,3.70
2024-04-08T00:45:04.287Z,3.50
2024-04-08T00:47:31.464Z,4.70
2024-04-08T00:49:58.384Z,4.80
2024-04-08T00:52:25.671Z,4.50
2024-04-08T00:54:52.367Z,5.40
2024-04-08T00:57:20.068Z,5.00
2024-04-08T00:59:48.235Z,4.70
2024-04-08T01:02:15.013Z,4.80
2024-04-08T01:04:41.582Z,4.70
2024-04-08T01:07:08.140Z,4.90
2024-04-08T01:09:34.811Z,4.70
2024-04-08T01:12:01.903Z,4.90
2024-04-08T01:14:28.780Z,4.80
2024-04-08T01:16:55.435Z,4.40
2024-04-08T01:19:24.992Z,3.80
2024-04-08T01:21:52.215Z,4.20
2024-04-08T01:24:19.028Z,4.90
2024-04-08T01:26:46.223Z,4.10
2024-04-08T01:29:12.885Z,3.70
2024-04-08T01:31:39.450Z,4.20
2024-04-08T01:34:06.060Z,4.20
2024-04-08T01:36:32.777Z,4.10
2024-04-08T01:38:59.425Z,4.30
2024-04-08T01:41:26.027Z,4.00
2024-04-08T01:43:52.718Z,3.90
2024-04-08T01:46:20.847Z,4.40
2024-04-08T01:48:47.789Z,4.80
2024-04-08T01:51:16.290Z,4.20
2024-04-08T01:53:43.594Z,3.80
2024-04-08T01:56:10.431Z,3.90
2024-04-08T01:58:38.570Z,3.50
2024-04-08T02:01:05.283Z,3.70
2024-04-08T02:03:31.988Z,3.20
2024-04-08T02:05:58.772Z,3.30
2024-04-08T02:08:25.540Z,3.40
2024-04-08T02:10:53.805Z,3.70
2024-04-08T02:13:20.608Z,3.80
2024-04-08T02:15:47.294Z,3.90
2024-04-08T02:18:13.998Z,3.50
2024-04-08T02:20:42.438Z,3.70
2024-04-08T02:23:09.230Z,3.50
2024-04-08T02:25:45.305Z,3.60
2024-04-08T02:28:13.005Z,3.40
2024-04-08T02:30:40.338Z,2.80
2024-04-08T02:33:07.292Z,2.70
2024-04-08T02:35:38.488Z,2.80
2024-04-08T02:38:06.192Z,3.00
2024-04-08T02:40:33.536Z,2.70
2024-04-08T02:43:01.235Z,2.70
2024-04-08T02:45:28.137Z,2.50
2024-04-08T02:47:55.000Z,2.40
2024-04-08T02:50:21.724Z,2.70
2024-04-08T02:52:48.605Z,2.70
2024-04-08T02:55:15.545Z,2.80
2024-04-08T02:57:42.386Z,3.00
2024-04-08T03:00:12.073Z,2.90
2024-04-08T03:02:38.742Z,3.00
2024-04-08T03:05:05.512Z,2.60
2024-04-08T03:07:32.445Z,3.50
2024-04-08T03:09:59.339Z,3.70
2024-04-08T03:12:26.149Z,4.30
2024-04-08T03:14:52.789Z,3.10
2024-04-08T03:17:19.470Z,2.50
2024-04-08T03:19:47.053Z,2.70
2024-04-08T03:22:13.742Z,2.80
2024-04-08T03:24:40.425Z,2.80
2024-04-08T03:27:07.089Z,2.80
2024-04-08T03:29:33.791Z,2.80
2024-04-08T03:32:00.401Z,2.50
2024-04-08T03:34:27.128Z,2.70
2024-04-08T03:36:53.816Z,2.50
2024-04-08T03:39:20.396Z,2.50
2024-04-08T03:41:47.170Z,3.00
2024-04-08T03:44:13.885Z,2.50
2024-04-08T03:46:40.575Z,2.30
2024-04-08T03:49:07.314Z,2.80
2024-04-08T03:51:33.937Z,2.70
2024-04-08T03:54:01.079Z,2.40
2024-04-08T03:56:27.785Z,2.40
2024-04-08T03:58:54.711Z,2.40
2024-04-08T04:01:21.914Z,2.80
2024-04-08T04:03:48.915Z,2.70
2024-04-08T04:06:15.558Z,2.80
2024-04-08T04:08:42.367Z,2.70
2024-04-08T04:11:09.594Z,3.20
2024-04-08T04:13:36.291Z,2.60
2024-04-08T04:16:06.848Z,2.60
2024-04-08T04:18:34.256Z,3.20
2024-04-08T04:21:01.032Z,3.30
2024-04-08T04:23:27.698Z,2.50
2024-04-08T04:25:58.746Z,2.60
2024-04-08T04:28:25.375Z,2.60
2024-04-08T04:30:56.519Z,2.50
2024-04-08T04:33:23.599Z,2.40
2024-04-08T04:35:57.801Z,2.10
2024-04-08T04:38:24.786Z,3.00
2024-04-08T04:41:06.179Z,2.30
2024-04-08T04:43:33.494Z,3.40
2024-04-08T04:46:00.431Z,2.70
2024-04-08T04:48:27.544Z,2.70
2024-04-08T04:50:54.729Z,2.70
2024-04-08T04:53:21.964Z,2.60
2024-04-08T04:55:55.402Z,2.50
2024-04-08T04:58:22.917Z,2.50
2024-04-08T05:00:51.256Z,2.80
2024-04-08T05:03:19.804Z,2.70
2024-04-08T05:05:57.006Z,3.20
2024-04-08T05:08:24.570Z,3.20
2024-04-08T05:10:51.885Z,3.10
2024-04-08T05:13:19.569Z,3.40
2024-04-08T05:15:56.591Z,4.10
2024-04-08T05:18:23.326Z,4.10
2024-04-08T05:20:51.994Z,4.00
2024-04-08T05:23:22.014Z,3.40
2024-04-08T05:25:49.314Z,3.50
2024-04-08T05:28:17.089Z,3.20
2024-04-08T05:30:44.242Z,3.80
2024-04-08T05:33:11.444Z,3.40
2024-04-08T05:35:38.423Z,3.40
2024-04-08T05:38:05.197Z,3.30
2024-04-08T05:40:35.849Z,3.30
2024-04-08T05:43:03.025Z,2.70
2024-04-08T05:45:30.031Z,2.90
2024-04-08T05:47:56.982Z,3.20
2024-04-08T05:50:24.692Z,3.20
2024-04-08T05:52:52.713Z,2.90
2024-04-08T05:55:19.722Z,2.90
2024-04-08T05:57:46.624Z,2.60
2024-04-08T06:00:16.915Z,3.20
2024-04-08T06:02:43.850Z,3.10
2024-04-08T06:05:11.332Z,3.10
2024-04-08T06:07:38.036Z,2.90
2024-04-08T06:10:04.955Z,4.00
2024-04-08T06:12:31.558Z,4.40
2024-04-08T06:14:58.419Z,4.20
2024-04-08T06:17:25.097Z,4.20
2024-04-08T06:19:51.867Z,3.80
2024-04-08T06:22:18.448Z,3.80
2024-04-08T06:24:45.048Z,3.60
2024-04-08T06:27:11.777Z,3.60
2024-04-08T06:29:38.753Z,4.00
2024-04-08T06:32:05.679Z,4.20
2024-04-08T06:34:32.292Z,4.40
2024-04-08T06:36:58.871Z,4.20
2024-04-08T06:39:25.445Z,3.90
2024-04-08T06:41:52.030Z,4.10
2024-04-08T06:44:18.644Z,3.50
2024-04-08T06:46:45.286Z,3.80
2024-04-08T06:49:11.947Z,3.80
2024-04-08T06:51:38.513Z,3.70
2024-04-08T06:54:05.729Z,3.70
2024-04-08T06:56:32.364Z,4.00
2024-04-08T06:58:59.063Z,4.40
2024-04-08T07:01:26.162Z,4.20
2024-04-08T07:03:52.835Z,4.40
2024-04-08T07:06:19.511Z,4.90
2024-04-08T07:08:46.108Z,6.80
2024-04-08T07:11:12.692Z,6.20
2024-04-08T07:13:39.321Z,6.30
2024-04-08T07:16:06.081Z,6.60
2024-04-08T07:18:32.767Z,5.80
2024-04-08T07:20:59.460Z,6.40
2024-04-08T07:23:26.072Z,6.40
2024-04-08T07:25:52.753Z,6.50
2024-04-08T07:28:19.299Z,6.40
2024-04-08T07:30:45.880Z,5.60
2024-04-08T07:33:12.638Z,5.80
2024-04-08T07:35:39.192Z,6.10
2024-04-08T07:38:06.191Z,5.70
2024-04-08T07:40:32.932Z,6.10
2024-04-08T07:42:59.487Z,5.70
2024-04-08T07:45:26.056Z,5.60
2024-04-08T07:47:52.730Z,6.30
2024-04-08T07:50:19.402Z,5.50
2024-04-08T07:52:46.043Z,6.50
2024-04-08T07:55:12.569Z,5.90
2024-04-08T07:57:39.204Z,5.90
2024-04-08T08:00:08.666Z,5.90
2024-04-08T08:02:38.798Z,5.80
2024-04-08T08:05:05.435Z,5.60
2024-04-08T08:07:32.126Z,5.40
2024-04-08T08:09:58.675Z,5.30
2024-04-08T08:12:25.369Z,5.90
2024-04-08T08:14:54.051Z,5.80
2024-04-08T08:17:25.320Z,6.40
2024-04-08T08:19:52.202Z,7.00
2024-04-08T08:22:18.898Z,7.10
2024-04-08T08:24:45.563Z,6.50
2024-04-08T08:27:12.287Z,7.20
2024-04-08T08:29:38.965Z,9.30
2024-04-08T08:32:05.832Z,9.00
2024-04-08T08:34:32.395Z,9.60
2024-04-08T08:36:58.973Z,10.40
2024-04-08T08:39:25.576Z,11.00
2024-04-08T08:41:52.587Z,19.40
2024-04-08T08:44:21.268Z,11.90
2024-04-08T08:46:49.085Z,10.10
2024-04-08T08:49:18.089Z,9.70
2024-04-08T08:51:44.864Z,9.90
2024-04-08T08:54:11.548Z,10.70
2024-04-08T08:56:39.515Z,10.70
2024-04-08T08:59:08.205Z,10.20
2024-04-08T09:01:34.823Z,10.10
2024-04-08T09:04:08.685Z,8.80
2024-04-08T09:06:37.407Z,9.60
2024-04-08T09:09:06.186Z,8.40
2024-04-08T09:11:32.865Z,7.90
2024-04-08T09:14:08.891Z,8.60
2024-04-08T09:16:35.555Z,10.30
2024-04-08T09:19:02.924Z,8.70
2024-04-08T09:21:29.729Z,8.30
2024-04-08T09:24:04.124Z,8.40
2024-04-08T09:26:32.098Z,7.70
2024-04-08T09:28:59.673Z,7.90
2024-04-08T09:31:27.052Z,9.60
2024-04-08T09:33:53.856Z,10.10
2024-04-08T09:36:21.591Z,9.60
2024-04-08T09:38:50.698Z,10.60
2024-04-08T09:41:18.724Z,10.50
2024-04-08T09:43:46.912Z,9.40
2024-04-08T09:46:14.871Z,9.70
2024-04-08T09:48:41.699Z,13.20
2024-04-08T09:51:09.688Z,13.00
2024-04-08T09:53:36.490Z,12.60
2024-04-08T09:56:15.011Z,13.20
2024-04-08T09:58:47.789Z,12.10
2024-04-08T10:01:15.721Z,11.80
2024-04-08T10:03:49.408Z,12.50
2024-04-08T10:06:17.487Z,12.00
2024-04-08T10:08:45.992Z,12.70
2024-04-08T10:11:12.602Z,12.00
2024-04-08T10:13:49.100Z,13.50
2024-04-08T10:16:17.170Z,9.00
2024-04-08T10:18:54.398Z,13.50
2024-04-08T10:21:26.462Z,14.10
2024-04-08T10:23:54.695Z,13.70
2024-04-08T10:26:27.033Z,12.90
2024-04-08T10:28:54.598Z,10.70
2024-04-08T10:31:22.177Z,11.30
2024-04-08T10:33:48.731Z,12.30
2024-04-08T10:36:15.338Z,13.00
2024-04-08T10:38:42.060Z,12.00
2024-04-08T10:41:09.193Z,10.70
2024-04-08T10:43:36.831Z,12.00
2024-04-08T10:46:05.100Z,13.90
2024-04-08T10:48:32.673Z,10.90
2024-04-08T10:51:00.886Z,9.70
2024-04-08T10:53:27.813Z,12.20
2024-04-08T10:55:55.981Z,11.00
2024-04-08T10:58:22.535Z,13.40
2024-04-08T11:00:49.405Z,13.20
2024-04-08T11:03:16.384Z,13.40
2024-04-08T11:05:43.599Z,11.90
2024-04-08T11:08:12.510Z,12.80
2024-04-08T11:10:39.069Z,12.60
2024-04-08T11:13:08.609Z,11.20
2024-04-08T11:15:35.374Z,12.50
2024-04-08T11:18:02.102Z,12.10
2024-04-08T11:20:33.005Z,12.30
2024-04-08T11:23:03.954Z,11.30
2024-04-08T11:25:31.047Z,12.80
2024-04-08T11:27:59.164Z,14.10
2024-04-08T11:30:26.161Z,12.90
2024-04-08T11:32:53.438Z,12.50
2024-04-08T11:35:20.194Z,12.80
2024-04-08T11:37:47.583Z,13.60
2024-04-08T11:40:14.323Z,14.00
2024-04-08T11:42:41.083Z,14.00
2024-04-08T11:45:08.785Z,12.00
2024-04-08T11:47:37.939Z,13.20
2024-04-08T11:50:08.348Z,13.10
2024-04-08T11:52:35.837Z,14.00
2024-04-08T11:55:05.592Z,14.50
2024-04-08T11:57:32.727Z,10.00
2024-04-08T11:59:59.509Z,13.40
2024-04-08T12:02:26.257Z,14.20
2024-04-08T12:04:53.624Z,14.00
2024-04-08T12:07:20.774Z,14.70
2024-04-08T12:09:47.322Z,14.40
2024-04-08T12:12:18.505Z,14.10
2024-04-08T12:14:45.190Z,14.50
2024-04-08T12:17:11.835Z,14.30
2024-04-08T12:19:39.422Z,14.10
2024-04-08T12:22:06.988Z,14.60
2024-04-08T12:24:34.847Z,14.70
2024-04-08T12:27:01.654Z,14.60
2024-04-08T12:29:28.395Z,13.70
2024-04-08T12:31:55.613Z,14.60
2024-04-08T12:34:22.212Z,14.60
2024-04-08T12:36:48.988Z,15.70
2024-04-08T12:39:15.713Z,15.10
2024-04-08T12:41:42.723Z,15.80
2024-04-08T12:44:10.528Z,13.20
2024-04-08T12:46:37.163Z,11.80
2024-04-08T12:49:03.975Z,14.80
2024-04-08T12:51:30.945Z,15.70
2024-04-08T12:53:57.647Z,13.50
2024-04-08T12:56:24.934Z,15.10
2024-04-08T12:58:56.974Z,14.80
2024-04-08T13:01:25.337Z,12.10
2024-04-08T13:03:53.576Z,12.40
2024-04-08T13:06:20.341Z,15.80
2024-04-08T13:08:47.139Z,13.40
2024-04-08T13:11:13.750Z,13.20
2024-04-08T13:13:45.014Z,15.40
2024-04-08T13:16:13.478Z,16.20
2024-04-08T13:18:44.751Z,15.30
2024-04-08T13:23:40.124Z,16.00
2024-04-08T13:26:09.232Z,16.40
2024-04-08T13:28:35.802Z,17.20
2024-04-08T13:31:02.508Z,15.70
2024-04-08T13:33:29.366Z,16.50
2024-04-08T13:35:56.146Z,14.20
2024-04-08T13:38:22.733Z,16.20
2024-04-08T13:40:49.274Z,16.00
2024-04-08T13:43:16.958Z,15.30
2024-04-08T13:45:44.654Z,14.80
2024-04-08T13:48:11.668Z,15.20
2024-04-08T13:50:38.441Z,16.70
2024-04-08T13:53:05.312Z,14.70
2024-04-08T13:55:32.888Z,16.30
2024-04-08T13:58:00.386Z,17.50
2024-04-08T14:00:27.081Z,15.30
2024-04-08T14:02:54.048Z,14.20
2024-04-08T14:05:20.644Z,14.60
2024-04-08T14:07:47.600Z,16.10
2024-04-08T14:10:14.322Z,14.10
2024-04-08T14:12:41.260Z,14.50
2024-04-08T14:15:08.532Z,14.50
2024-04-08T14:17:35.356Z,16.90
2024-04-08T14:20:02.019Z,11.70
2024-04-08T14:22:28.541Z,13.70
2024-04-08T14:24:55.248Z,18.50
2024-04-08T14:27:22.031Z,15.80
2024-04-08T14:29:52.834Z,14.30
2024-04-08T14:32:26.355Z,14.40
2024-04-08T14:34:53.078Z,14.50
2024-04-08T14:37:20.477Z,16.20
2024-04-08T14:39:49.626Z,17.00
2024-04-08T14:42:16.782Z,15.50
2024-04-08T14:44:48.096Z,16.20
2024-04-08T14:47:20.785Z,14.10
2024-04-08T14:49:47.827Z,14.60
2024-04-08T14:52:23.143Z,15.30
2024-04-08T14:54:53.441Z,15.50
2024-04-08T14:57:20.123Z,14.00
2024-04-08T14:59:46.741Z,16.30
2024-04-08T15:02:14.019Z,15.00
2024-04-08T15:04:40.689Z,14.40
2024-04-08T15:07:13.950Z,15.90
2024-04-08T15:09:46.346Z,17.70
2024-04-08T15:12:13.046Z,15.50
2024-04-08T15:14:39.742Z,16.70
2024-04-08T15:17:06.311Z,10.00
2024-04-08T15:19:32.932Z,15.40
2024-04-08T15:22:00.602Z,13.70
2024-04-08T15:24:27.200Z,15.50
2024-04-08T15:26:53.856Z,13.40
2024-04-08T15:29:20.420Z,17.10
2024-04-08T15:31:47.032Z,11.00
2024-04-08T15:34:13.725Z,15.30
2024-04-08T15:36:40.370Z,15.80
2024-04-08T15:39:07.174Z,15.20
2024-04-08T15:41:33.740Z,17.80
2024-04-08T15:44:00.338Z,15.50
2024-04-08T15:46:31.599Z,16.90
2024-04-08T15:48:58.343Z,15.20
2024-04-08T15:51:25.259Z,15.30
2024-04-08T15:53:51.951Z,16.00
2024-04-08T15:56:18.552Z,14.80
2024-04-08T15:58:45.265Z,15.40
2024-04-08T16:01:12.164Z,16.60
2024-04-08T16:03:38.982Z,16.00
2024-04-08T16:06:07.610Z,15.90
2024-04-08T16:08:36.307Z,15.30
2024-04-08T16:11:03.255Z,15.70
2024-04-08T16:13:29.803Z,15.50
2024-04-08T16:15:56.527Z,15.30
2024-04-08T16:18:23.759Z,17.10
2024-04-08T16:21:00.516Z,18.70
2024-04-08T16:23:47.637Z,17.10
2024-04-08T16:26:18.471Z,16.50
2024-04-08T16:28:45.018Z,15.60
2024-04-08T16:31:11.629Z,16.70
2024-04-08T16:33:38.512Z,16.60
2024-04-08T16:36:09.805Z,15.90
2024-04-08T16:38:40.443Z,15.80
2024-04-08T16:41:08.079Z,15.70
2024-04-08T16:43:35.464Z,15.20
2024-04-08T16:46:02.499Z,16.00
2024-04-08T16:48:29.938Z,13.90
2024-04-08T16:50:57.783Z,17.50
2024-04-08T16:53:26.847Z,16.20
2024-04-08T16:55:54.336Z,14.80
2024-04-08T16:58:21.477Z,14.50
2024-04-08T17:00:48.489Z,15.50
2024-04-08T17:03:15.612Z,14.60
2024-04-08T17:05:42.419Z,17.60
2024-04-08T17:08:08.967Z,17.60
2024-04-08T17:10:35.869Z,16.30
2024-04-08T17:13:02.575Z,15.10
2024-04-08T17:15:29.469Z,13.40
2024-04-08T17:17:56.210Z,15.90
2024-04-08T17:20:22.970Z,13.50
2024-04-08T17:22:52.535Z,14.30
2024-04-08T17:25:19.147Z,12.90
2024-04-08T17:27:45.761Z,14.20
2024-04-08T17:30:12.670Z,13.60
2024-04-08T17:32:39.380Z,12.40
2024-04-08T17:35:06.537Z,12.70
2024-04-08T17:37:36.073Z,14.70
2024-04-08T17:40:03.008Z,13.00
2024-04-08T17:42:39.671Z,13.80
2024-04-08T17:45:11.500Z,12.90
2024-04-08T17:47:38.812Z,13.80
2024-04-08T17:50:06.991Z,13.60
2024-04-08T17:52:33.771Z,12.50
2024-04-08T17:55:00.310Z,12.60
2024-04-08T17:57:26.937Z,11.60
2024-04-08T17:59:56.072Z,13.20
2024-04-08T18:02:23.254Z,13.30
2024-04-08T18:04:53.284Z,12.50
2024-04-08T18:07:19.932Z,12.10
2024-04-08T18:09:48.571Z,12.30
2024-04-08T18:12:15.558Z,11.20
2024-04-08T18:14:42.392Z,9.10
2024-04-08T18:17:08.976Z,9.10
2024-04-08T18:19:35.996Z,8.40
2024-04-08T18:22:02.637Z,9.40
2024-04-08T18:24:29.216Z,9.00
2024-04-08T18:26:56.067Z,9.30
2024-04-08T18:29:22.735Z,8.70
2024-04-08T18:31:49.289Z,9.10
2024-04-08T18:34:16.078Z,8.00
2024-04-08T18:36:43.053Z,8.40
2024-04-08T18:39:10.576Z,7.90
2024-04-08T18:41:37.347Z,8.50
2024-04-08T18:44:04.051Z,8.20
2024-04-08T18:46:30.674Z,7.40
2024-04-08T18:48:57.454Z,7.80
2024-04-08T18:51:24.262Z,8.70
2024-04-08T18:53:53.361Z,7.70
2024-04-08T18:56:23.243Z,7.20
2024-04-08T18:58:49.818Z,24.40
2024-04-08T19:01:22.035Z,13.40
2024-04-08T19:03:52.398Z,9.30
2024-04-08T19:06:19.246Z,9.40
2024-04-08T19:08:45.940Z,8.80
2024-04-08T19:11:12.608Z,10.00
2024-04-08T19:13:39.340Z,11.80
2024-04-08T19:16:06.827Z,11.20
2024-04-08T19:18:36.089Z,10.90
2024-04-08T19:21:09.548Z,10.70
2024-04-08T19:23:37.451Z,10.00
2024-04-08T19:26:04.274Z,11.50
2024-04-08T19:28:31.657Z,10.50
2024-04-08T19:30:58.376Z,10.10
2024-04-08T19:33:25.315Z,10.70
2024-04-08T19:35:59.373Z,10.40
2024-04-08T19:38:26.507Z,11.10
2024-04-08T19:41:01.484Z,9.50
2024-04-08T19:43:29.116Z,10.10
2024-04-08T19:46:02.472Z,11.70
2024-04-08T19:48:37.591Z,10.50
2024-04-08T19:51:13.229Z,10.70
2024-04-08T19:53:42.860Z,10.40
2024-04-08T19:56:18.478Z,11.50
2024-04-08T19:58:45.760Z,11.10
2024-04-08T20:01:13.045Z,11.70
2024-04-08T20:03:41.947Z,11.00
2024-04-08T20:06:09.595Z,11.40
2024-04-08T20:08:37.235Z,12.20
2024-04-08T20:11:11.825Z,12.10
2024-04-08T20:13:42.679Z,14.00
2024-04-08T20:16:16.826Z,13.50
2024-04-08T20:18:43.749Z,12.10
2024-04-08T20:21:10.657Z,12.50
2024-04-08T20:23:37.369Z,13.40
2024-04-08T20:26:04.189Z,12.10
2024-04-08T20:28:30.758Z,12.60
2024-04-08T20:30:58.298Z,12.50
2024-04-08T20:33:25.014Z,13.40
2024-04-08T20:36:02.975Z,13.80
2024-04-08T20:38:31.851Z,14.00
2024-04-08T20:41:03.319Z,14.50
2024-04-08T20:43:34.528Z,13.80
2024-04-08T20:46:01.700Z,14.40
2024-04-08T20:48:28.962Z,13.70
2024-04-08T20:50:55.768Z,14.90
2024-04-08T20:53:23.670Z,15.80
2024-04-08T20:55:56.387Z,14.80
2024-04-08T20:58:24.916Z,15.00
2024-04-08T21:00:52.290Z,15.20
2024-04-08T21:03:20.195Z,15.90
2024-04-08T21:05:47.710Z,14.50
2024-04-08T21:08:14.326Z,16.30
2024-04-08T21:10:41.093Z,16.30
2024-04-08T21:13:07.678Z,15.70
2024-04-08T21:15:34.530Z,15.50
2024-04-08T21:18:01.546Z,16.20
2024-04-08T21:20:28.321Z,15.50
2024-04-08T21:22:54.851Z,16.30
2024-04-08T21:25:21.431Z,16.20
2024-04-08T21:27:47.989Z,16.30
2024-04-08T21:30:14.615Z,15.20
2024-04-08T21:32:41.251Z,16.90
2024-04-08T21:35:07.935Z,15.90
2024-04-08T21:37:34.522Z,16.40
2024-04-08T21:40:01.114Z,15.50
2024-04-08T21:42:27.754Z,16.00
2024-04-08T21:44:54.424Z,15.30
2024-04-08T21:47:21.183Z,15.30
2024-04-08T21:49:47.832Z,16.60
2024-04-08T21:52:14.386Z,16.20
2024-04-08T21:54:41.074Z,15.30
2024-04-08T21:57:07.707Z,16.40
2024-04-08T21:59:34.277Z,16.30
2024-04-08T22:02:01.022Z,16.00
2024-04-08T22:04:27.930Z,15.50
2024-04-08T22:06:54.812Z,16.30
2024-04-08T22:09:21.510Z,15.60
2024-04-08T22:11:48.428Z,15.80
2024-04-08T22:14:15.059Z,15.20
2024-04-08T22:16:41.758Z,15.50
2024-04-08T22:19:08.491Z,16.40
2024-04-08T22:21:35.329Z,16.40
2024-04-08T22:24:02.307Z,16.10
2024-04-08T22:26:28.979Z,15.00
2024-04-08T22:28:55.718Z,14.80
2024-04-08T22:31:23.084Z,14.60
2024-04-08T22:33:49.783Z,14.60
2024-04-08T22:36:16.977Z,14.20
2024-04-08T22:38:43.651Z,15.20
2024-04-08T22:41:18.203Z,15.80
2024-04-08T22:43:47.345Z,14.70
2024-04-08T22:46:13.920Z,15.80
2024-04-08T22:48:40.638Z,14.30
2024-04-08T22:51:07.565Z,15.00
2024-04-08T22:53:34.343Z,15.00
2024-04-08T22:56:00.923Z,15.10
2024-04-08T22:58:27.540Z,14.90
2024-04-08T23:00:54.123Z,14.50
2024-04-08T23:03:21.753Z,15.70
2024-04-08T23:05:48.785Z,15.00
2024-04-08T23:08:15.325Z,15.80
2024-04-08T23:10:41.955Z,15.00
2024-04-08T23:13:08.652Z,13.90
2024-04-08T23:15:35.887Z,14.40
2024-04-08T23:18:06.312Z,13.80
2024-04-08T23:20:35.108Z,13.90
2024-04-08T23:23:03.198Z,12.50
2024-04-08T23:25:29.753Z,14.60
2024-04-08T23:27:56.319Z,13.60
2024-04-08T23:30:23.343Z,12.20
2024-04-08T23:32:50.165Z,13.20
2024-04-08T23:35:16.879Z,13.70
2024-04-08T23:37:43.467Z,12.80
2024-04-08T23:40:13.834Z,12.80
2024-04-08T23:42:40.792Z,13.60
2024-04-08T23:45:08.432Z,13.40
2024-04-08T23:47:35.024Z,12.40
2024-04-08T23:50:01.715Z,12.60
2024-04-08T23:52:28.260Z,12.60
2024-04-08T23:54:55.289Z,10.70
2024-04-08T23:57:22.018Z,10.80
2024-04-08T23:59:48.623Z,11.30
